sensor_id;sensor_type;location;lat;lon;timestamp;pressure;altitude;pressure_sealevel;temperature;humidity
22605;BME280;11469;49.024;8.246;2023-06-14T00:00:37;99838.84;;;15.54;60.46
22605;BME280;11469;49.024;8.246;2023-06-14T00:03:06;99844.50;;;15.47;61.13
22605;BME280;11469;49.024;8.246;2023-06-14T00:05:33;99845.72;;;15.46;61.46
22605;BME280;11469;49.024;8.246;2023-06-14T00:08:03;99848.13;;;15.48;61.65
22605;BME280;11469;49.024;8.246;2023-06-14T00:10:32;99841.28;;;15.49;61.79
22605;BME280;11469;49.024;8.246;2023-06-14T00:13:01;99838.44;;;15.49;62.02
22605;BME280;11469;49.024;8.246;2023-06-14T00:15:26;99840.47;;;15.52;62.20
22605;BME280;11469;49.024;8.246;2023-06-14T00:17:51;99834.41;;;15.50;61.93
22605;BME280;11469;49.024;8.246;2023-06-14T00:20:17;99838.44;;;15.49;61.51
22605;BME280;11469;49.024;8.246;2023-06-14T00:22:42;99840.88;;;15.43;61.54
22605;BME280;11469;49.024;8.246;2023-06-14T00:25:08;99840.88;;;15.43;61.83
22605;BME280;11469;49.024;8.246;2023-06-14T00:27:33;99841.31;;;15.38;61.50
22605;BME280;11469;49.024;8.246;2023-06-14T00:29:59;99836.88;;;15.34;61.87
22605;BME280;11469;49.024;8.246;2023-06-14T00:32:24;99841.34;;;15.20;61.71
22605;BME280;11469;49.024;8.246;2023-06-14T00:34:51;99845.38;;;15.19;61.64
22605;BME280;11469;49.024;8.246;2023-06-14T00:37:17;99837.72;;;15.13;61.98
22605;BME280;11469;49.024;8.246;2023-06-14T00:39:42;99838.16;;;15.01;63.00
22605;BME280;11469;49.024;8.246;2023-06-14T00:42:07;99843.00;;;14.97;62.83
22605;BME280;11469;49.024;8.246;2023-06-14T00:44:33;99841.81;;;14.87;63.58
22605;BME280;11469;49.024;8.246;2023-06-14T00:46:58;99834.94;;;14.70;64.40
22605;BME280;11469;49.024;8.246;2023-06-14T00:49:24;99838.19;;;14.51;65.63
22605;BME280;11469;49.024;8.246;2023-06-14T00:51:49;99845.78;;;14.33;66.54
22605;BME280;11469;49.024;8.246;2023-06-14T00:54:15;99838.50;;;14.21;67.21
22605;BME280;11469;49.024;8.246;2023-06-14T00:56:43;99845.34;;;14.20;67.88
22605;BME280;11469;49.024;8.246;2023-06-14T00:59:09;99847.38;;;14.23;67.83
22605;BME280;11469;49.024;8.246;2023-06-14T01:01:36;99843.75;;;14.22;67.75
22605;BME280;11469;49.024;8.246;2023-06-14T01:04:02;99844.56;;;14.19;68.46
22605;BME280;11469;49.024;8.246;2023-06-14T01:14:19;99844.97;;;14.11;68.81
22605;BME280;11469;49.024;8.246;2023-06-14T01:16:46;99848.97;;;14.03;68.79
22605;BME280;11469;49.024;8.246;2023-06-14T01:19:13;99851.69;;;13.78;70.01
22605;BME280;11469;49.024;8.246;2023-06-14T01:21:40;99848.84;;;13.74;70.45
22605;BME280;11469;49.024;8.246;2023-06-14T01:24:07;99850.88;;;13.74;70.73
22605;BME280;11469;49.024;8.246;2023-06-14T01:26:34;99845.59;;;13.61;71.47
22605;BME280;11469;49.024;8.246;2023-06-14T01:29:01;99848.75;;;13.49;72.12
22605;BME280;11469;49.024;8.246;2023-06-14T01:31:26;99855.50;;;13.34;73.09
22605;BME280;11469;49.024;8.246;2023-06-14T01:33:52;99854.38;;;13.46;72.63
22605;BME280;11469;49.024;8.246;2023-06-14T01:36:22;99851.56;;;13.49;72.15
22605;BME280;11469;49.024;8.246;2023-06-14T01:38:49;99853.56;;;13.45;72.54
22605;BME280;11469;49.024;8.246;2023-06-14T01:41:16;99855.66;;;13.59;71.44
22605;BME280;11469;49.024;8.246;2023-06-14T01:43:44;99858.03;;;13.53;71.31
22605;BME280;11469;49.024;8.246;2023-06-14T01:46:11;99851.97;;;13.48;72.02
22605;BME280;11469;49.024;8.246;2023-06-14T01:48:38;99856.38;;;13.45;72.17
22605;BME280;11469;49.024;8.246;2023-06-14T01:51:03;99856.34;;;13.42;72.06
22605;BME280;11469;49.024;8.246;2023-06-14T01:53:29;99861.94;;;13.31;72.50
22605;BME280;11469;49.024;8.246;2023-06-14T01:55:54;99867.53;;;13.27;72.81
22605;BME280;11469;49.024;8.246;2023-06-14T01:58:20;99855.88;;;13.29;72.73
22605;BME280;11469;49.024;8.246;2023-06-14T02:00:46;99866.75;;;13.34;72.91
22605;BME280;11469;49.024;8.246;2023-06-14T02:03:12;99867.16;;;13.33;72.53
22605;BME280;11469;49.024;8.246;2023-06-14T02:05:38;99866.34;;;13.32;72.48
22605;BME280;11469;49.024;8.246;2023-06-14T02:08:05;99867.94;;;13.29;72.43
22605;BME280;11469;49.024;8.246;2023-06-14T02:10:31;99870.31;;;13.24;73.02
22605;BME280;11469;49.024;8.246;2023-06-14T02:12:56;99875.13;;;13.16;73.50
22605;BME280;11469;49.024;8.246;2023-06-14T02:15:21;99876.28;;;13.15;72.54
22605;BME280;11469;49.024;8.246;2023-06-14T02:17:47;99873.88;;;13.14;72.73
22605;BME280;11469;49.024;8.246;2023-06-14T02:20:13;99876.69;;;13.14;72.76
22605;BME280;11469;49.024;8.246;2023-06-14T02:22:38;99878.69;;;13.13;72.93
22605;BME280;11469;49.024;8.246;2023-06-14T02:25:04;99877.84;;;13.09;72.76
22605;BME280;11469;49.024;8.246;2023-06-14T02:27:29;99877.03;;;13.09;73.07
22605;BME280;11469;49.024;8.246;2023-06-14T02:29:55;99884.69;;;13.08;73.15
22605;BME280;11469;49.024;8.246;2023-06-14T02:32:20;99884.69;;;13.08;72.62
22605;BME280;11469;49.024;8.246;2023-06-14T02:34:46;99881.09;;;13.15;71.93
22605;BME280;11469;49.024;8.246;2023-06-14T02:37:15;99883.59;;;13.27;71.35
22605;BME280;11469;49.024;8.246;2023-06-14T02:39:40;99884.00;;;13.25;71.23
22605;BME280;11469;49.024;8.246;2023-06-14T02:42:06;99890.50;;;13.37;70.24
22605;BME280;11469;49.024;8.246;2023-06-14T02:44:31;99889.69;;;13.36;70.58
22605;BME280;11469;49.024;8.246;2023-06-14T02:46:57;99887.28;;;13.38;70.02
22605;BME280;11469;49.024;8.246;2023-06-14T02:49:24;99889.31;;;13.38;70.28
22605;BME280;11469;49.024;8.246;2023-06-14T02:51:49;99882.47;;;13.39;70.02
22605;BME280;11469;49.024;8.246;2023-06-14T02:54:15;99893.81;;;13.53;69.32
22605;BME280;11469;49.024;8.246;2023-06-14T02:56:40;99882.53;;;13.49;69.58
22605;BME280;11469;49.024;8.246;2023-06-14T02:59:06;99890.56;;;13.47;69.81
22605;BME280;11469;49.024;8.246;2023-06-14T03:01:32;99891.31;;;13.37;70.70
22605;BME280;11469;49.024;8.246;2023-06-14T03:04:04;99883.25;;;13.32;70.83
22605;BME280;11469;49.024;8.246;2023-06-14T03:06:30;99888.50;;;13.37;70.78
22605;BME280;11469;49.024;8.246;2023-06-14T03:08:57;99881.66;;;13.38;70.96
22605;BME280;11469;49.024;8.246;2023-06-14T03:11:25;99893.75;;;13.42;70.93
22605;BME280;11469;49.024;8.246;2023-06-14T03:13:51;99890.56;;;13.47;70.36
22605;BME280;11469;49.024;8.246;2023-06-14T03:16:17;99894.19;;;13.48;70.21
22605;BME280;11469;49.024;8.246;2023-06-14T03:18:48;99898.66;;;13.52;70.05
22605;BME280;11469;49.024;8.246;2023-06-14T03:21:13;99897.44;;;13.53;69.87
22605;BME280;11469;49.024;8.246;2023-06-14T03:23:41;99901.47;;;13.56;69.89
22605;BME280;11469;49.024;8.246;2023-06-14T03:26:07;99901.09;;;13.57;69.90
22605;BME280;11469;49.024;8.246;2023-06-14T03:28:33;99902.72;;;13.62;69.86
22605;BME280;11469;49.024;8.246;2023-06-14T03:30:58;99905.16;;;13.71;69.65
22605;BME280;11469;49.024;8.246;2023-06-14T03:33:24;99909.25;;;13.87;68.02
22605;BME280;11469;49.024;8.246;2023-06-14T03:35:50;99911.72;;;14.00;67.44
22605;BME280;11469;49.024;8.246;2023-06-14T03:38:16;99907.28;;;13.95;67.24
22605;BME280;11469;49.024;8.246;2023-06-14T03:40:41;99912.19;;;14.12;66.38
22605;BME280;11469;49.024;8.246;2023-06-14T03:43:07;99917.03;;;14.15;66.66
22605;BME280;11469;49.024;8.246;2023-06-14T03:45:32;99925.09;;;14.24;65.98
22605;BME280;11469;49.024;8.246;2023-06-14T03:47:57;99921.50;;;14.34;65.48
22605;BME280;11469;49.024;8.246;2023-06-14T03:50:23;99930.75;;;14.35;65.76
22605;BME280;11469;49.024;8.246;2023-06-14T03:52:48;99934.81;;;14.41;65.57
22605;BME280;11469;49.024;8.246;2023-06-14T03:55:14;99936.44;;;14.42;65.02
22605;BME280;11469;49.024;8.246;2023-06-14T03:57:41;99936.50;;;14.63;64.21
22605;BME280;11469;49.024;8.246;2023-06-14T04:00:08;99943.75;;;14.82;63.10
22605;BME280;11469;49.024;8.246;2023-06-14T04:02:34;99950.63;;;14.95;62.88
22605;BME280;11469;49.024;8.246;2023-06-14T04:04:59;99947.41;;;15.07;62.42
22605;BME280;11469;49.024;8.246;2023-06-14T04:07:25;99953.84;;;15.22;61.77
22605;BME280;11469;49.024;8.246;2023-06-14T04:09:53;99949.81;;;15.37;61.39
22605;BME280;11469;49.024;8.246;2023-06-14T04:12:18;99961.91;;;15.52;60.67
22605;BME280;11469;49.024;8.246;2023-06-14T04:14:44;99955.81;;;15.64;60.66
22605;BME280;11469;49.024;8.246;2023-06-14T04:17:09;99956.63;;;15.68;60.50
22605;BME280;11469;49.024;8.246;2023-06-14T04:19:35;99967.09;;;15.78;60.13
22605;BME280;11469;49.024;8.246;2023-06-14T04:22:01;99967.47;;;15.91;59.70
22605;BME280;11469;49.024;8.246;2023-06-14T04:24:27;99963.75;;;16.08;59.44
22605;BME280;11469;49.024;8.246;2023-06-14T04:26:58;99976.63;;;16.23;58.99
22605;BME280;11469;49.024;8.246;2023-06-14T04:29:24;99972.94;;;16.41;58.36
22605;BME280;11469;49.024;8.246;2023-06-14T04:31:51;99979.28;;;16.55;57.81
22605;BME280;11469;49.024;8.246;2023-06-14T04:34:17;99977.66;;;16.58;57.87
22605;BME280;11469;49.024;8.246;2023-06-14T04:36:43;99973.97;;;16.72;57.68
22605;BME280;11469;49.024;8.246;2023-06-14T04:39:15;99977.59;;;16.76;57.31
22605;BME280;11469;49.024;8.246;2023-06-14T04:41:41;99981.94;;;16.91;56.87
22605;BME280;11469;49.024;8.246;2023-06-14T04:44:06;99987.97;;;17.00;56.94
22605;BME280;11469;49.024;8.246;2023-06-14T04:46:32;99985.34;;;17.20;56.09
22605;BME280;11469;49.024;8.246;2023-06-14T04:48:58;99987.59;;;17.43;55.81
22605;BME280;11469;49.024;8.246;2023-06-14T04:51:27;99980.91;;;17.67;55.16
22605;BME280;11469;49.024;8.246;2023-06-14T04:53:55;99990.47;;;17.84;54.54
22605;BME280;11469;49.024;8.246;2023-06-14T04:56:23;99989.38;;;17.71;54.61
22605;BME280;11469;49.024;8.246;2023-06-14T04:58:48;99991.31;;;17.81;54.70
22605;BME280;11469;49.024;8.246;2023-06-14T05:01:13;99994.56;;;17.79;54.53
22605;BME280;11469;49.024;8.246;2023-06-14T05:03:39;100011.25;;;17.70;55.16
22605;BME280;11469;49.024;8.246;2023-06-14T05:06:04;100004.88;;;17.55;54.86
22605;BME280;11469;49.024;8.246;2023-06-14T05:08:30;100009.56;;;17.28;55.69
22605;BME280;11469;49.024;8.246;2023-06-14T05:10:55;100010.31;;;17.36;55.94
22605;BME280;11469;49.024;8.246;2023-06-14T05:13:20;100013.47;;;17.45;55.65
22605;BME280;11469;49.024;8.246;2023-06-14T05:15:48;100007.50;;;17.36;56.50
22605;BME280;11469;49.024;8.246;2023-06-14T05:18:14;100008.63;;;17.45;56.01
22605;BME280;11469;49.024;8.246;2023-06-14T05:20:41;100012.78;;;17.78;55.44
22605;BME280;11469;49.024;8.246;2023-06-14T05:23:09;100012.16;;;17.98;54.56
22605;BME280;11469;49.024;8.246;2023-06-14T05:25:42;100013.03;;;18.29;54.00
22605;BME280;11469;49.024;8.246;2023-06-14T05:28:08;100017.59;;;18.19;53.84
22605;BME280;11469;49.024;8.246;2023-06-14T05:30:34;100015.22;;;18.48;53.37
22605;BME280;11469;49.024;8.246;2023-06-14T05:32:59;100026.47;;;18.55;53.17
22605;BME280;11469;49.024;8.246;2023-06-14T05:35:25;100027.38;;;18.14;53.93
22605;BME280;11469;49.024;8.246;2023-06-14T05:37:52;100028.22;;;18.45;53.45
22605;BME280;11469;49.024;8.246;2023-06-14T05:40:19;100030.69;;;18.77;53.00
22605;BME280;11469;49.024;8.246;2023-06-14T05:42:45;100028.63;;;18.78;52.92
22605;BME280;11469;49.024;8.246;2023-06-14T05:45:11;100030.34;;;18.38;53.59
22605;BME280;11469;49.024;8.246;2023-06-14T05:47:36;100038.34;;;18.46;53.15
22605;BME280;11469;49.024;8.246;2023-06-14T05:50:01;100036.06;;;18.68;53.34
22605;BME280;11469;49.024;8.246;2023-06-14T05:52:27;100042.66;;;18.58;53.36
22605;BME280;11469;49.024;8.246;2023-06-14T05:54:53;100046.19;;;18.69;53.32
22605;BME280;11469;49.024;8.246;2023-06-14T05:57:18;100034.88;;;18.66;53.40
22605;BME280;11469;49.024;8.246;2023-06-14T05:59:44;100037.34;;;18.90;52.54
22605;BME280;11469;49.024;8.246;2023-06-14T06:02:09;100050.56;;;19.04;51.76
22605;BME280;11469;49.024;8.246;2023-06-14T06:04:34;100052.81;;;18.55;53.18
22605;BME280;11469;49.024;8.246;2023-06-14T06:07:01;100044.09;;;19.31;51.85
22605;BME280;11469;49.024;8.246;2023-06-14T06:09:26;100050.03;;;19.13;51.45
22605;BME280;11469;49.024;8.246;2023-06-14T06:11:51;100052.97;;;19.60;50.99
22605;BME280;11469;49.024;8.246;2023-06-14T06:14:17;100050.03;;;19.86;50.11
22605;BME280;11469;49.024;8.246;2023-06-14T06:16:42;100052.72;;;19.74;49.46
22605;BME280;11469;49.024;8.246;2023-06-14T06:19:07;100052.69;;;20.20;49.39
22605;BME280;11469;49.024;8.246;2023-06-14T06:21:33;100058.16;;;20.31;48.94
22605;BME280;11469;49.024;8.246;2023-06-14T06:23:58;100060.84;;;20.18;48.52
22605;BME280;11469;49.024;8.246;2023-06-14T06:26:25;100052.34;;;19.95;50.02
22605;BME280;11469;49.024;8.246;2023-06-14T06:28:51;100058.31;;;20.01;49.72
22605;BME280;11469;49.024;8.246;2023-06-14T06:31:17;100068.28;;;19.89;48.83
22605;BME280;11469;49.024;8.246;2023-06-14T06:33:42;100065.50;;;20.09;48.73
22605;BME280;11469;49.024;8.246;2023-06-14T06:36:08;100059.88;;;20.05;48.04
22605;BME280;11469;49.024;8.246;2023-06-14T06:38:33;100056.84;;;20.36;48.19
22605;BME280;11469;49.024;8.246;2023-06-14T06:40:58;100063.75;;;20.15;48.48
22605;BME280;11469;49.024;8.246;2023-06-14T06:43:24;100062.16;;;19.91;48.73
22605;BME280;11469;49.024;8.246;2023-06-14T06:45:50;100068.59;;;19.95;48.80
22605;BME280;11469;49.024;8.246;2023-06-14T06:48:15;100069.38;;;20.18;48.29
22605;BME280;11469;49.024;8.246;2023-06-14T06:50:41;100071.94;;;19.89;49.65
22605;BME280;11469;49.024;8.246;2023-06-14T06:53:06;100077.00;;;20.02;49.46
22605;BME280;11469;49.024;8.246;2023-06-14T06:55:32;100085.81;;;20.31;49.27
22605;BME280;11469;49.024;8.246;2023-06-14T06:57:57;100082.50;;;20.12;49.10
22605;BME280;11469;49.024;8.246;2023-06-14T07:00:22;100095.13;;;20.54;49.29
22605;BME280;11469;49.024;8.246;2023-06-14T07:02:48;100086.69;;;20.28;48.79
22605;BME280;11469;49.024;8.246;2023-06-14T07:05:13;100094.75;;;20.52;48.71
22605;BME280;11469;49.024;8.246;2023-06-14T07:07:39;100091.19;;;20.48;47.89
22605;BME280;11469;49.024;8.246;2023-06-14T07:10:05;100092.13;;;20.42;48.47
22605;BME280;11469;49.024;8.246;2023-06-14T07:12:31;100091.47;;;20.54;48.53
22605;BME280;11469;49.024;8.246;2023-06-14T07:14:59;100091.91;;;20.72;48.44
22605;BME280;11469;49.024;8.246;2023-06-14T07:17:25;100091.69;;;20.43;48.72
22605;BME280;11469;49.024;8.246;2023-06-14T07:19:50;100094.53;;;20.63;48.47
22605;BME280;11469;49.024;8.246;2023-06-14T07:22:16;100103.50;;;20.81;46.86
22605;BME280;11469;49.024;8.246;2023-06-14T07:24:42;100100.53;;;20.49;48.56
22605;BME280;11469;49.024;8.246;2023-06-14T07:27:08;100105.41;;;20.88;47.77
22605;BME280;11469;49.024;8.246;2023-06-14T07:29:33;100098.72;;;20.78;47.24
22605;BME280;11469;49.024;8.246;2023-06-14T07:31:59;100100.81;;;20.74;47.61
22605;BME280;11469;49.024;8.246;2023-06-14T07:34:24;100112.69;;;20.89;47.30
22605;BME280;11469;49.024;8.246;2023-06-14T07:36:50;100117.91;;;20.54;47.83
22605;BME280;11469;49.024;8.246;2023-06-14T07:39:16;100113.97;;;20.68;47.78
22605;BME280;11469;49.024;8.246;2023-06-14T07:41:42;100116.50;;;20.82;47.36
22605;BME280;11469;49.024;8.246;2023-06-14T07:44:07;100111.16;;;20.84;48.00
22605;BME280;11469;49.024;8.246;2023-06-14T07:46:32;100117.00;;;21.17;46.62
22605;BME280;11469;49.024;8.246;2023-06-14T07:48:59;100120.69;;;21.34;47.22
22605;BME280;11469;49.024;8.246;2023-06-14T07:51:25;100113.34;;;21.52;47.16
22605;BME280;11469;49.024;8.246;2023-06-14T07:53:50;100115.56;;;21.45;46.39
22605;BME280;11469;49.024;8.246;2023-06-14T07:56:16;100118.25;;;20.96;47.16
22605;BME280;11469;49.024;8.246;2023-06-14T07:58:41;100115.63;;;21.05;46.62
22605;BME280;11469;49.024;8.246;2023-06-14T08:01:06;100111.75;;;20.96;47.56
22605;BME280;11469;49.024;8.246;2023-06-14T08:03:33;100107.66;;;20.97;46.92
22605;BME280;11469;49.024;8.246;2023-06-14T08:05:59;100110.94;;;20.95;47.57
22605;BME280;11469;49.024;8.246;2023-06-14T08:08:26;100106.19;;;21.44;46.42
22605;BME280;11469;49.024;8.246;2023-06-14T08:10:51;100107.38;;;21.47;46.97
22605;BME280;11469;49.024;8.246;2023-06-14T08:13:17;100102.81;;;21.82;46.15
22605;BME280;11469;49.024;8.246;2023-06-14T08:15:42;100113.16;;;21.43;46.84
22605;BME280;11469;49.024;8.246;2023-06-14T08:18:08;100106.91;;;21.48;45.40
22605;BME280;11469;49.024;8.246;2023-06-14T08:20:33;100115.78;;;21.70;44.94
22605;BME280;11469;49.024;8.246;2023-06-14T08:23:00;100113.09;;;21.63;42.95
22605;BME280;11469;49.024;8.246;2023-06-14T08:25:25;100117.19;;;21.62;43.89
22605;BME280;11469;49.024;8.246;2023-06-14T08:27:51;100123.16;;;21.68;44.69
22605;BME280;11469;49.024;8.246;2023-06-14T08:30:16;100119.41;;;21.87;44.59
22605;BME280;11469;49.024;8.246;2023-06-14T08:32:43;100121.22;;;22.13;44.15
22605;BME280;11469;49.024;8.246;2023-06-14T08:35:08;100115.31;;;21.88;43.65
22605;BME280;11469;49.024;8.246;2023-06-14T08:37:40;100120.75;;;21.82;43.03
22605;BME280;11469;49.024;8.246;2023-06-14T08:40:20;100113.56;;;22.10;43.11
22605;BME280;11469;49.024;8.246;2023-06-14T08:42:54;100114.72;;;22.13;42.92
22605;BME280;11469;49.024;8.246;2023-06-14T08:45:25;100113.16;;;22.25;42.48
22605;BME280;11469;49.024;8.246;2023-06-14T08:47:53;100114.38;;;22.40;43.19
22605;BME280;11469;49.024;8.246;2023-06-14T08:50:24;100120.59;;;22.51;43.31
22605;BME280;11469;49.024;8.246;2023-06-14T08:52:54;100120.91;;;22.40;42.68
22605;BME280;11469;49.024;8.246;2023-06-14T08:55:21;100118.75;;;22.44;43.85
22605;BME280;11469;49.024;8.246;2023-06-14T08:57:51;100114.69;;;22.58;42.29
22605;BME280;11469;49.024;8.246;2023-06-14T09:00:17;100116.94;;;22.50;42.27
22605;BME280;11469;49.024;8.246;2023-06-14T09:02:43;100116.78;;;22.41;43.52
22605;BME280;11469;49.024;8.246;2023-06-14T09:05:13;100115.16;;;22.57;43.03
22605;BME280;11469;49.024;8.246;2023-06-14T09:07:41;100110.84;;;22.65;43.49
22605;BME280;11469;49.024;8.246;2023-06-14T09:10:12;100113.09;;;22.86;42.90
22605;BME280;11469;49.024;8.246;2023-06-14T09:12:38;100107.16;;;22.93;42.56
22605;BME280;11469;49.024;8.246;2023-06-14T09:15:05;100106.28;;;22.67;43.04
22605;BME280;11469;49.024;8.246;2023-06-14T09:17:38;100111.78;;;23.03;42.88
22605;BME280;11469;49.024;8.246;2023-06-14T09:20:04;100111.66;;;23.20;40.87
22605;BME280;11469;49.024;8.246;2023-06-14T09:22:34;100105.84;;;23.10;42.19
22605;BME280;11469;49.024;8.246;2023-06-14T09:25:00;100112.25;;;23.14;41.22
22605;BME280;11469;49.024;8.246;2023-06-14T09:27:26;100111.47;;;23.14;41.47
22605;BME280;11469;49.024;8.246;2023-06-14T09:29:53;100111.56;;;23.10;41.91
22605;BME280;11469;49.024;8.246;2023-06-14T09:32:18;100114.94;;;22.93;41.77
22605;BME280;11469;49.024;8.246;2023-06-14T09:34:45;100121.72;;;23.24;41.03
22605;BME280;11469;49.024;8.246;2023-06-14T09:37:11;100119.13;;;23.42;41.61
22605;BME280;11469;49.024;8.246;2023-06-14T09:39:49;100115.13;;;23.14;39.93
22605;BME280;11469;49.024;8.246;2023-06-14T09:42:18;100127.13;;;23.47;39.29
22605;BME280;11469;49.024;8.246;2023-06-14T09:44:48;100119.13;;;23.42;38.72
22605;BME280;11469;49.024;8.246;2023-06-14T09:47:15;100121.56;;;23.69;39.97
22605;BME280;11469;49.024;8.246;2023-06-14T09:49:41;100121.53;;;23.95;39.28
22605;BME280;11469;49.024;8.246;2023-06-14T09:52:07;100129.34;;;23.69;38.71
22605;BME280;11469;49.024;8.246;2023-06-14T09:54:40;100127.25;;;24.07;38.78
22605;BME280;11469;49.024;8.246;2023-06-14T09:57:11;100127.84;;;23.90;38.40
22605;BME280;11469;49.024;8.246;2023-06-14T09:59:44;100131.72;;;23.96;38.46
22605;BME280;11469;49.024;8.246;2023-06-14T10:02:24;100124.16;;;24.02;37.66
22605;BME280;11469;49.024;8.246;2023-06-14T10:04:58;100122.31;;;24.08;38.76
22605;BME280;11469;49.024;8.246;2023-06-14T10:07:32;100122.78;;;23.94;38.33
22605;BME280;11469;49.024;8.246;2023-06-14T10:09:59;100129.50;;;24.12;38.97
22605;BME280;11469;49.024;8.246;2023-06-14T10:12:25;100121.66;;;23.78;37.27
22605;BME280;11469;49.024;8.246;2023-06-14T10:14:51;100116.84;;;24.01;38.54
22605;BME280;11469;49.024;8.246;2023-06-14T10:17:44;100122.94;;;24.25;38.09
22605;BME280;11469;49.024;8.246;2023-06-14T10:20:36;100115.25;;;24.47;34.88
22605;BME280;11469;49.024;8.246;2023-06-14T10:23:11;100112.56;;;24.74;36.48
22605;BME280;11469;49.024;8.246;2023-06-14T10:25:38;100110.41;;;25.00;36.86
22605;BME280;11469;49.024;8.246;2023-06-14T10:28:19;100113.31;;;25.09;36.90
22605;BME280;11469;49.024;8.246;2023-06-14T10:31:11;100104.59;;;24.47;37.34
22605;BME280;11469;49.024;8.246;2023-06-14T10:33:48;100100.13;;;24.46;36.17
22605;BME280;11469;49.024;8.246;2023-06-14T10:39:00;100112.59;;;24.53;36.44
22605;BME280;11469;49.024;8.246;2023-06-14T10:41:29;100102.66;;;24.66;35.09
22605;BME280;11469;49.024;8.246;2023-06-14T10:46:47;100114.38;;;24.59;33.81
22605;BME280;11469;49.024;8.246;2023-06-14T10:49:17;100106.19;;;24.48;36.55
22605;BME280;11469;49.024;8.246;2023-06-14T10:51:49;100114.91;;;24.67;35.35
22605;BME280;11469;49.024;8.246;2023-06-14T10:54:15;100112.47;;;25.00;33.68
22605;BME280;11469;49.024;8.246;2023-06-14T10:56:49;100113.19;;;24.69;33.54
22605;BME280;11469;49.024;8.246;2023-06-14T10:59:15;100116.19;;;24.88;33.84
22605;BME280;11469;49.024;8.246;2023-06-14T11:04:48;100116.31;;;24.84;33.26
22605;BME280;11469;49.024;8.246;2023-06-14T11:10:37;100106.09;;;24.96;32.98
22605;BME280;11469;49.024;8.246;2023-06-14T11:13:03;100104.19;;;24.80;33.38
22605;BME280;11469;49.024;8.246;2023-06-14T11:15:33;100107.56;;;25.00;34.50
22605;BME280;11469;49.024;8.246;2023-06-14T11:18:06;100099.75;;;25.01;34.26
22605;BME280;11469;49.024;8.246;2023-06-14T11:20:33;100102.94;;;25.34;33.91
22605;BME280;11469;49.024;8.246;2023-06-14T11:22:59;100092.22;;;25.25;34.22
22605;BME280;11469;49.024;8.246;2023-06-14T11:25:25;100095.47;;;25.67;33.87
22605;BME280;11469;49.024;8.246;2023-06-14T11:27:53;100079.44;;;25.88;33.47
22605;BME280;11469;49.024;8.246;2023-06-14T11:30:18;100085.28;;;25.75;33.59
22605;BME280;11469;49.024;8.246;2023-06-14T11:32:48;100097.16;;;25.96;33.56
22605;BME280;11469;49.024;8.246;2023-06-14T11:35:14;100086.78;;;26.07;32.35
22605;BME280;11469;49.024;8.246;2023-06-14T11:37:40;100090.00;;;26.28;33.12
22605;BME280;11469;49.024;8.246;2023-06-14T11:40:07;100093.91;;;25.44;33.69
22605;BME280;11469;49.024;8.246;2023-06-14T11:42:36;100093.06;;;25.66;33.19
22605;BME280;11469;49.024;8.246;2023-06-14T11:45:03;100080.81;;;25.74;32.20
22605;BME280;11469;49.024;8.246;2023-06-14T11:47:34;100080.34;;;25.76;32.79
22605;BME280;11469;49.024;8.246;2023-06-14T11:50:00;100085.59;;;25.37;33.76
22605;BME280;11469;49.024;8.246;2023-06-14T11:52:26;100071.22;;;25.68;32.38
22605;BME280;11469;49.024;8.246;2023-06-14T11:54:52;100076.03;;;25.00;33.01
22605;BME280;11469;49.024;8.246;2023-06-14T11:57:18;100080.44;;;25.23;33.34
22605;BME280;11469;49.024;8.246;2023-06-14T11:59:44;100085.50;;;25.50;31.88
22605;BME280;11469;49.024;8.246;2023-06-14T12:02:19;100077.19;;;25.12;32.24
22605;BME280;11469;49.024;8.246;2023-06-14T12:04:47;100074.81;;;25.51;31.78
22605;BME280;11469;49.024;8.246;2023-06-14T12:07:17;100074.75;;;25.32;32.03
22605;BME280;11469;49.024;8.246;2023-06-14T12:12:16;100082.78;;;25.87;31.56
22605;BME280;11469;49.024;8.246;2023-06-14T12:14:42;100077.00;;;25.37;31.92
22605;BME280;11469;49.024;8.246;2023-06-14T12:17:08;100079.25;;;25.83;30.66
22605;BME280;11469;49.024;8.246;2023-06-14T12:19:41;100077.84;;;26.05;31.61
22605;BME280;11469;49.024;8.246;2023-06-14T12:22:09;100081.84;;;26.08;31.17
22605;BME280;11469;49.024;8.246;2023-06-14T12:24:35;100072.81;;;25.69;31.78
22605;BME280;11469;49.024;8.246;2023-06-14T12:27:00;100069.66;;;25.76;31.10
22605;BME280;11469;49.024;8.246;2023-06-14T12:29:28;100076.44;;;25.61;30.85
22605;BME280;11469;49.024;8.246;2023-06-14T12:31:54;100070.84;;;25.48;31.86
22605;BME280;11469;49.024;8.246;2023-06-14T12:34:24;100068.53;;;25.74;32.50
22605;BME280;11469;49.024;8.246;2023-06-14T12:36:50;100070.84;;;25.97;31.58
22605;BME280;11469;49.024;8.246;2023-06-14T12:39:16;100067.31;;;26.02;31.45
22605;BME280;11469;49.024;8.246;2023-06-14T12:41:41;100077.47;;;25.76;31.68
22605;BME280;11469;49.024;8.246;2023-06-14T12:44:07;100084.53;;;25.53;30.95
22605;BME280;11469;49.024;8.246;2023-06-14T12:46:33;100084.38;;;25.48;31.18
22605;BME280;11469;49.024;8.246;2023-06-14T12:48:58;100076.72;;;26.03;30.59
22605;BME280;11469;49.024;8.246;2023-06-14T12:51:23;100073.72;;;26.25;31.11
22605;BME280;11469;49.024;8.246;2023-06-14T12:53:50;100067.72;;;26.32;30.93
22605;BME280;11469;49.024;8.246;2023-06-14T12:56:16;100068.28;;;26.18;30.57
22605;BME280;11469;49.024;8.246;2023-06-14T12:58:42;100075.50;;;26.59;29.69
22605;BME280;11469;49.024;8.246;2023-06-14T13:01:07;100070.75;;;26.37;29.93
22605;BME280;11469;49.024;8.246;2023-06-14T13:03:32;100075.34;;;26.62;29.91
22605;BME280;11469;49.024;8.246;2023-06-14T13:05:59;100072.97;;;26.33;30.02
22605;BME280;11469;49.024;8.246;2023-06-14T13:08:25;100080.75;;;26.78;29.90
22605;BME280;11469;49.024;8.246;2023-06-14T13:10:51;100082.84;;;26.60;29.71
22605;BME280;11469;49.024;8.246;2023-06-14T13:13:18;100080.25;;;25.98;29.65